createdAt,value
2023-01-26T00:01:29.170Z,17.03
2023-01-26T00:03:57.970Z,17.90
2023-01-26T00:06:26.174Z,17.40
2023-01-26T00:08:55.642Z,17.33
2023-01-26T00:11:26.834Z,16.10
2023-01-26T00:13:55.598Z,15.17
2023-01-26T00:16:23.474Z,14.80
2023-01-26T00:18:51.734Z,16.43
2023-01-26T00:21:21.832Z,15.40
2023-01-26T00:23:50.739Z,15.00
2023-01-26T00:26:20.893Z,13.50
2023-01-26T00:28:50.691Z,15.17
2023-01-26T00:31:22.354Z,14.70
2023-01-26T00:33:50.603Z,14.50
2023-01-26T00:36:18.443Z,14.60
2023-01-26T00:38:46.254Z,14.93
2023-01-26T00:41:35.283Z,14.33
2023-01-26T00:44:04.647Z,13.70
2023-01-26T00:46:32.576Z,14.67
2023-01-26T00:49:01.698Z,14.60
2023-01-26T00:51:29.667Z,14.90
2023-01-26T00:53:57.705Z,13.50
2023-01-26T00:56:28.035Z,13.50
2023-01-26T00:58:56.097Z,14.07
2023-01-26T01:01:25.393Z,13.27
2023-01-26T01:03:53.274Z,13.73
2023-01-26T01:06:21.272Z,13.90
2023-01-26T01:08:51.598Z,12.90
2023-01-26T01:11:19.440Z,13.17
2023-01-26T01:13:47.266Z,12.57
2023-01-26T01:16:17.059Z,13.67
2023-01-26T01:18:46.460Z,13.23
2023-01-26T01:21:17.170Z,12.07
2023-01-26T01:23:45.288Z,11.93
2023-01-26T01:26:14.678Z,12.57
2023-01-26T01:28:43.524Z,13.13
2023-01-26T01:31:13.973Z,12.63
2023-01-26T01:33:42.563Z,13.77
2023-01-26T01:36:17.331Z,12.50
2023-01-26T01:38:47.523Z,10.80
2023-01-26T01:41:17.242Z,12.30
2023-01-26T01:43:46.226Z,11.67
2023-01-26T01:46:28.062Z,13.10
2023-01-26T01:49:00.812Z,13.90
2023-01-26T01:51:35.035Z,14.20
2023-01-26T01:54:07.329Z,15.47
2023-01-26T01:56:38.750Z,14.20
2023-01-26T01:59:07.758Z,13.70
2023-01-26T02:01:35.893Z,13.27
2023-01-26T02:04:07.239Z,14.23
2023-01-26T02:06:47.421Z,13.83
2023-01-26T02:09:30.689Z,12.80
2023-01-26T02:12:25.744Z,11.70
2023-01-26T02:14:54.450Z,11.03
2023-01-26T02:17:22.749Z,12.20
2023-01-26T02:19:59.475Z,11.67
2023-01-26T02:22:39.152Z,12.53
2023-01-26T02:25:14.074Z,11.77
2023-01-26T02:27:44.117Z,11.63
2023-01-26T02:30:14.473Z,11.23
2023-01-26T02:32:42.680Z,10.43
2023-01-26T02:35:11.077Z,11.40
2023-01-26T02:37:39.623Z,11.60
2023-01-26T02:40:16.819Z,10.00
2023-01-26T02:42:45.184Z,10.60
2023-01-26T02:45:16.647Z,10.80
2023-01-26T02:47:45.951Z,10.30
2023-01-26T02:50:14.085Z,12.20
2023-01-26T02:52:44.058Z,12.90
2023-01-26T02:55:23.224Z,13.20
2023-01-26T02:57:54.320Z,12.93
2023-01-26T03:00:24.829Z,11.93
2023-01-26T03:02:54.893Z,12.60
2023-01-26T03:05:24.677Z,12.67
2023-01-26T03:07:53.773Z,11.90
2023-01-26T03:10:24.208Z,13.00
2023-01-26T03:12:54.653Z,12.50
2023-01-26T03:15:40.150Z,12.17
2023-01-26T03:18:29.722Z,11.73
2023-01-26T03:21:17.372Z,11.77
2023-01-26T03:24:02.662Z,12.23
2023-01-26T03:26:48.255Z,12.63
2023-01-26T03:29:17.786Z,11.67
2023-01-26T03:31:46.249Z,11.23
2023-01-26T03:34:14.562Z,12.13
2023-01-26T03:36:43.464Z,12.00
2023-01-26T03:39:40.116Z,11.00
2023-01-26T03:42:25.317Z,10.93
2023-01-26T03:45:12.187Z,11.00
2023-01-26T03:47:59.993Z,11.30
2023-01-26T03:50:45.840Z,10.53
2023-01-26T03:53:32.837Z,11.00
2023-01-26T03:56:18.428Z,10.37
2023-01-26T03:58:48.841Z,10.43
2023-01-26T04:01:21.776Z,10.40
2023-01-26T04:04:12.023Z,9.60
2023-01-26T04:06:59.465Z,10.30
2023-01-26T04:09:27.649Z,10.23
2023-01-26T04:11:56.508Z,10.13
2023-01-26T04:14:49.709Z,10.87
2023-01-26T04:17:41.818Z,10.27
2023-01-26T04:20:28.572Z,9.33
2023-01-26T04:22:56.983Z,11.10
2023-01-26T04:25:24.980Z,10.67
2023-01-26T04:27:53.394Z,10.77
2023-01-26T04:30:21.717Z,9.93
2023-01-26T04:32:52.336Z,9.43
2023-01-26T04:35:20.215Z,8.00
2023-01-26T04:37:49.113Z,8.10
2023-01-26T04:40:17.864Z,9.20
2023-01-26T04:42:47.175Z,9.37
2023-01-26T04:45:15.134Z,8.03
2023-01-26T04:47:44.907Z,9.77
2023-01-26T04:50:15.145Z,8.33
2023-01-26T04:52:43.246Z,8.33
2023-01-26T04:55:11.436Z,8.77
2023-01-26T04:57:42.191Z,8.63
2023-01-26T05:00:12.848Z,8.70
2023-01-26T05:02:42.073Z,7.70
2023-01-26T05:05:10.995Z,8.83
2023-01-26T05:07:40.195Z,8.77
2023-01-26T05:10:10.211Z,8.40
2023-01-26T05:12:54.848Z,8.30
2023-01-26T05:15:48.819Z,7.77
2023-01-26T05:18:26.995Z,7.30
2023-01-26T05:21:27.335Z,7.63
2023-01-26T05:23:56.952Z,9.77
2023-01-26T05:27:12.508Z,8.50
2023-01-26T05:29:41.356Z,8.63
2023-01-26T05:32:09.198Z,11.00
2023-01-26T05:34:37.621Z,17.27
2023-01-26T05:37:06.683Z,9.60
2023-01-26T05:39:37.544Z,7.90
2023-01-26T05:42:07.292Z,8.87
2023-01-26T05:44:53.821Z,9.43
2023-01-26T05:47:23.793Z,10.43
2023-01-26T05:49:52.291Z,6.90
2023-01-26T05:52:26.364Z,6.90
2023-01-26T05:54:55.969Z,7.13
2023-01-26T05:57:25.044Z,7.23
2023-01-26T06:00:00.017Z,5.97
2023-01-26T06:02:28.293Z,5.40
2023-01-26T06:04:56.476Z,6.00
2023-01-26T06:07:24.326Z,6.43
2023-01-26T06:10:09.146Z,7.93
2023-01-26T06:13:03.059Z,9.23
2023-01-26T06:15:53.687Z,9.97
2023-01-26T06:18:26.268Z,9.43
2023-01-26T06:21:00.199Z,10.03
2023-01-26T06:23:28.538Z,10.10
2023-01-26T06:26:01.609Z,10.10
2023-01-26T06:28:31.808Z,10.43
2023-01-26T06:31:03.362Z,10.20
2023-01-26T06:33:34.961Z,9.83
2023-01-26T06:36:03.886Z,10.73
2023-01-26T06:38:32.601Z,9.77
2023-01-26T06:41:03.362Z,10.17
2023-01-26T06:43:33.054Z,8.73
2023-01-26T06:46:02.690Z,9.17
2023-01-26T06:48:33.304Z,9.40
2023-01-26T06:51:07.505Z,9.37
2023-01-26T06:53:40.034Z,8.90
2023-01-26T06:56:29.000Z,9.90
2023-01-26T06:59:17.108Z,9.10
2023-01-26T07:02:03.985Z,9.10
2023-01-26T07:04:32.085Z,10.03
2023-01-26T07:06:59.916Z,10.20
2023-01-26T07:09:27.723Z,10.10
2023-01-26T07:11:56.998Z,9.47
2023-01-26T07:14:24.857Z,10.03
2023-01-26T07:16:52.863Z,9.33
2023-01-26T07:19:20.922Z,10.80
2023-01-26T07:21:48.761Z,10.20
2023-01-26T07:24:16.642Z,10.40
2023-01-26T07:26:44.510Z,12.07
2023-01-26T07:29:13.739Z,12.80
2023-01-26T07:31:44.477Z,10.93
2023-01-26T07:34:12.938Z,8.60
2023-01-26T07:36:41.168Z,10.20
2023-01-26T07:39:09.163Z,9.47
2023-01-26T07:41:37.119Z,8.73
2023-01-26T07:44:25.741Z,8.70
2023-01-26T07:46:54.507Z,8.37
2023-01-26T07:49:22.445Z,8.47
2023-01-26T07:51:52.546Z,9.13
2023-01-26T07:54:21.450Z,11.33
2023-01-26T07:56:52.491Z,10.33
2023-01-26T07:59:20.593Z,9.27
2023-01-26T08:01:51.917Z,10.00
2023-01-26T08:04:20.019Z,10.27
2023-01-26T08:06:47.909Z,9.10
2023-01-26T08:09:15.856Z,9.00
2023-01-26T08:11:43.733Z,12.50
2023-01-26T08:14:11.665Z,10.33
2023-01-26T08:16:40.290Z,7.93
2023-01-26T08:19:09.653Z,9.30
2023-01-26T08:21:37.550Z,8.30
2023-01-26T08:24:06.532Z,10.00
2023-01-26T08:26:34.633Z,8.90
2023-01-26T08:29:02.459Z,7.80
2023-01-26T08:31:30.538Z,7.80
2023-01-26T08:33:58.372Z,10.70
2023-01-26T08:36:28.652Z,9.30
2023-01-26T08:38:56.517Z,9.00
2023-01-26T08:41:24.468Z,10.53
2023-01-26T08:43:53.031Z,12.27
2023-01-26T08:46:20.968Z,8.10
2023-01-26T08:48:48.879Z,10.53
2023-01-26T08:51:16.727Z,13.47
2023-01-26T08:53:46.165Z,11.13
2023-01-26T08:56:14.199Z,13.47
2023-01-26T08:58:42.192Z,9.23
2023-01-26T09:01:12.993Z,10.17
2023-01-26T09:03:40.902Z,12.27
2023-01-26T09:06:10.454Z,8.10
2023-01-26T09:08:38.432Z,10.87
2023-01-26T09:11:08.702Z,15.00
2023-01-26T09:13:37.253Z,7.90
2023-01-26T09:16:06.311Z,7.00
2023-01-26T09:18:34.336Z,8.67
2023-01-26T09:21:06.185Z,8.40
2023-01-26T09:23:35.283Z,9.27
2023-01-26T09:26:03.547Z,9.80
2023-01-26T09:28:32.733Z,10.20
2023-01-26T09:31:05.775Z,9.77
2023-01-26T09:33:34.078Z,9.57
2023-01-26T09:36:05.811Z,6.47
2023-01-26T09:38:33.673Z,7.03
2023-01-26T09:41:08.308Z,6.80
2023-01-26T09:43:41.657Z,5.83
2023-01-26T09:46:23.948Z,6.03
2023-01-26T09:49:04.074Z,8.13
2023-01-26T09:51:36.087Z,8.17
2023-01-26T09:54:16.045Z,7.13
2023-01-26T09:56:44.157Z,12.83
2023-01-26T09:59:23.990Z,10.30
2023-01-26T10:01:57.296Z,11.40
2023-01-26T10:04:33.600Z,9.70
2023-01-26T10:07:04.302Z,8.13
2023-01-26T10:09:48.617Z,8.27
2023-01-26T10:12:21.029Z,7.50
2023-01-26T10:14:57.305Z,9.67
2023-01-26T10:17:32.067Z,9.37
2023-01-26T10:20:05.537Z,8.30
2023-01-26T10:22:41.335Z,7.33
2023-01-26T10:25:16.879Z,7.70
2023-01-26T10:27:46.150Z,8.13
2023-01-26T10:30:17.489Z,8.90
2023-01-26T10:32:48.241Z,8.90
2023-01-26T10:35:18.801Z,9.17
2023-01-26T10:37:47.045Z,7.47
2023-01-26T10:40:15.315Z,7.10
2023-01-26T10:42:56.131Z,7.37
2023-01-26T10:45:31.745Z,6.97
2023-01-26T10:48:15.100Z,7.33
2023-01-26T10:50:43.179Z,7.93
2023-01-26T10:53:17.153Z,8.13
2023-01-26T10:55:45.016Z,7.47
2023-01-26T10:58:43.055Z,7.60
2023-01-26T11:01:15.689Z,6.13
2023-01-26T11:03:44.042Z,6.03
2023-01-26T11:06:16.371Z,6.73
2023-01-26T11:08:45.057Z,7.40
2023-01-26T11:11:26.739Z,7.43
2023-01-26T11:14:13.865Z,7.40
2023-01-26T11:16:47.919Z,7.63
2023-01-26T11:19:26.659Z,7.40
2023-01-26T11:21:59.740Z,7.57
2023-01-26T11:24:35.291Z,8.27
2023-01-26T11:27:30.420Z,8.67
2023-01-26T11:30:15.339Z,7.73
2023-01-26T11:32:51.946Z,8.03
2023-01-26T11:35:30.090Z,9.07
2023-01-26T11:38:09.529Z,8.93
2023-01-26T11:40:45.706Z,8.43
2023-01-26T11:43:28.414Z,8.80
2023-01-26T11:46:07.703Z,7.67
2023-01-26T11:48:45.170Z,7.80
2023-01-26T11:51:21.891Z,9.67
2023-01-26T11:54:25.000Z,8.73
2023-01-26T11:57:04.480Z,8.37
2023-01-26T11:59:37.768Z,8.57
2023-01-26T12:02:27.615Z,9.83
2023-01-26T12:05:00.983Z,8.27
2023-01-26T12:07:34.544Z,8.60
2023-01-26T12:10:06.075Z,9.80
2023-01-26T12:12:39.547Z,8.30
2023-01-26T12:15:14.375Z,9.67
2023-01-26T12:17:49.814Z,9.07
2023-01-26T12:20:28.436Z,8.60
2023-01-26T12:23:04.695Z,9.13
2023-01-26T12:25:35.942Z,8.37
2023-01-26T12:28:17.031Z,9.20
2023-01-26T12:30:53.300Z,10.37
2023-01-26T12:33:21.489Z,8.90
2023-01-26T12:36:05.059Z,9.17
2023-01-26T12:38:46.348Z,8.77
2023-01-26T12:41:20.350Z,9.30
2023-01-26T12:44:09.655Z,10.43
2023-01-26T12:46:41.841Z,9.43
2023-01-26T12:49:16.187Z,8.67
2023-01-26T12:51:51.798Z,9.40
2023-01-26T12:54:24.459Z,9.53
2023-01-26T12:56:55.930Z,9.50
2023-01-26T12:59:39.506Z,9.03
2023-01-26T13:02:27.281Z,9.97
2023-01-26T13:04:55.893Z,8.27
2023-01-26T13:07:36.687Z,9.37
2023-01-26T13:10:22.855Z,9.67
2023-01-26T13:12:52.484Z,9.50
2023-01-26T13:15:21.481Z,9.03
2023-01-26T13:17:53.008Z,9.30
2023-01-26T13:20:42.188Z,8.83
2023-01-26T13:23:40.777Z,8.80
2023-01-26T13:26:25.157Z,9.07
2023-01-26T13:28:54.390Z,8.43
2023-01-26T13:31:33.902Z,9.57
2023-01-26T13:34:07.120Z,9.17
2023-01-26T13:36:37.792Z,9.80
2023-01-26T13:39:15.125Z,9.87
2023-01-26T13:41:47.711Z,9.80
2023-01-26T13:44:21.077Z,9.90
2023-01-26T13:46:56.339Z,9.83
2023-01-26T13:49:28.723Z,9.73
2023-01-26T13:51:56.575Z,8.90
2023-01-26T13:54:28.044Z,9.60
2023-01-26T13:57:04.477Z,9.60
2023-01-26T13:59:33.871Z,10.87
2023-01-26T14:02:02.069Z,9.43
2023-01-26T14:04:31.496Z,10.63
2023-01-26T14:07:03.872Z,9.37
2023-01-26T14:09:36.151Z,8.53
2023-01-26T14:12:06.350Z,9.70
2023-01-26T14:14:38.837Z,10.83
2023-01-26T14:17:09.350Z,10.10
2023-01-26T14:19:42.158Z,11.03
2023-01-26T14:22:13.467Z,11.13
2023-01-26T14:24:43.145Z,11.77
2023-01-26T14:27:29.754Z,10.03
2023-01-26T14:29:58.672Z,9.87
2023-01-26T14:32:29.555Z,10.43
2023-01-26T14:34:59.723Z,9.23
2023-01-26T14:37:28.702Z,10.13
2023-01-26T14:40:20.659Z,9.87
2023-01-26T14:42:50.090Z,8.97
2023-01-26T14:45:18.753Z,10.40
2023-01-26T14:47:46.690Z,10.13
2023-01-26T14:50:23.329Z,10.47
2023-01-26T14:52:51.278Z,11.27
2023-01-26T14:55:26.538Z,10.07
2023-01-26T14:57:54.841Z,10.77
2023-01-26T15:00:28.609Z,10.40
2023-01-26T15:02:58.815Z,10.67
2023-01-26T15:05:33.784Z,11.20
2023-01-26T15:08:03.748Z,10.83
2023-01-26T15:10:36.334Z,11.30
2023-01-26T15:13:08.581Z,10.60
2023-01-26T15:15:39.169Z,12.03
2023-01-26T15:18:18.618Z,11.60
2023-01-26T15:21:00.152Z,10.53
2023-01-26T15:23:30.997Z,11.70
2023-01-26T15:26:08.302Z,11.37
2023-01-26T15:28:36.989Z,11.33
2023-01-26T15:31:05.370Z,10.23
2023-01-26T15:33:46.877Z,11.53
2023-01-26T15:36:33.528Z,12.07
2023-01-26T15:39:05.424Z,10.77
2023-01-26T15:41:34.572Z,10.73
2023-01-26T15:44:02.431Z,11.90
2023-01-26T15:46:30.314Z,10.27
2023-01-26T15:48:58.264Z,11.07
2023-01-26T15:51:26.134Z,11.27
2023-01-26T15:53:54.064Z,11.13
2023-01-26T15:56:21.912Z,11.70
2023-01-26T15:58:51.139Z,12.20
2023-01-26T16:01:22.795Z,11.53
2023-01-26T16:03:50.758Z,12.17
2023-01-26T16:06:24.679Z,11.53
2023-01-26T16:08:52.912Z,11.60
2023-01-26T16:11:21.703Z,12.10
2023-01-26T16:14:02.956Z,12.67
2023-01-26T16:16:31.954Z,13.03
2023-01-26T16:19:00.104Z,11.90
2023-01-26T16:21:31.413Z,10.80
2023-01-26T16:24:00.011Z,11.30
2023-01-26T16:26:28.996Z,11.63
2023-01-26T16:28:58.522Z,12.00
2023-01-26T16:31:29.537Z,11.23
2023-01-26T16:33:58.252Z,10.33
2023-01-26T16:36:26.132Z,10.80
2023-01-26T16:38:54.103Z,11.67
2023-01-26T16:41:25.960Z,9.57
2023-01-26T16:43:55.863Z,9.53
2023-01-26T16:46:25.855Z,9.60
2023-01-26T16:48:53.885Z,8.90
2023-01-26T16:51:25.235Z,9.33
2023-01-26T16:53:53.953Z,8.97
2023-01-26T16:56:22.586Z,9.10
2023-01-26T16:58:50.459Z,9.40
2023-01-26T17:01:21.123Z,8.53
2023-01-26T17:03:51.104Z,7.67
2023-01-26T17:06:20.296Z,7.93
2023-01-26T17:08:48.544Z,8.57
2023-01-26T17:11:18.507Z,8.10
2023-01-26T17:13:46.787Z,8.57
2023-01-26T17:16:16.768Z,8.03
2023-01-26T17:18:45.429Z,7.77
2023-01-26T17:21:15.858Z,8.50
2023-01-26T17:23:45.221Z,8.13
2023-01-26T17:26:15.321Z,9.00
2023-01-26T17:28:43.548Z,8.40
2023-01-26T17:31:13.316Z,7.93
2023-01-26T17:33:41.184Z,7.63
2023-01-26T17:36:09.655Z,7.90
2023-01-26T17:38:38.874Z,7.77
2023-01-26T17:41:07.022Z,8.53
2023-01-26T17:43:35.305Z,8.97
2023-01-26T17:46:05.457Z,8.53
2023-01-26T17:48:34.153Z,8.93
2023-01-26T17:51:01.967Z,8.50
2023-01-26T17:53:29.828Z,8.13
2023-01-26T17:56:00.719Z,9.00
2023-01-26T17:58:28.537Z,9.33
2023-01-26T18:00:56.366Z,10.83
2023-01-26T18:03:26.319Z,8.27
2023-01-26T18:05:55.562Z,8.77
2023-01-26T18:08:24.646Z,6.83
2023-01-26T18:10:59.967Z,8.37
2023-01-26T18:13:28.250Z,7.67
2023-01-26T18:15:56.488Z,9.10
2023-01-26T18:18:24.685Z,7.87
2023-01-26T18:20:53.021Z,9.07
2023-01-26T18:23:21.514Z,9.97
2023-01-26T18:25:49.655Z,10.10
2023-01-26T18:28:18.991Z,10.50
2023-01-26T18:30:46.869Z,11.90
2023-01-26T18:33:14.831Z,11.97
2023-01-26T18:35:42.759Z,10.60
2023-01-26T18:38:11.735Z,10.20
2023-01-26T18:40:40.409Z,10.13
2023-01-26T18:43:09.692Z,10.80
2023-01-26T18:45:41.858Z,10.60
2023-01-26T18:48:09.895Z,10.50
2023-01-26T18:50:39.042Z,11.80
2023-01-26T18:53:07.218Z,10.60
2023-01-26T18:55:35.192Z,10.40
2023-01-26T18:58:02.995Z,11.37
2023-01-26T19:00:30.851Z,11.07
2023-01-26T19:03:00.244Z,10.00
2023-01-26T19:05:28.347Z,9.97
2023-01-26T19:07:56.162Z,10.00
2023-01-26T19:10:24.328Z,10.80
2023-01-26T19:12:52.271Z,10.20
2023-01-26T19:15:20.129Z,11.03
2023-01-26T19:17:48.534Z,10.53
2023-01-26T19:20:18.487Z,9.60
2023-01-26T19:22:53.815Z,10.30
2023-01-26T19:25:21.656Z,10.13
2023-01-26T19:27:49.609Z,11.17
2023-01-26T19:30:18.503Z,10.90
2023-01-26T19:33:03.135Z,10.30
2023-01-26T19:35:33.108Z,11.37
2023-01-26T19:38:00.908Z,11.67
2023-01-26T19:40:28.922Z,11.43
2023-01-26T19:42:56.786Z,10.77
2023-01-26T19:45:24.887Z,13.03
2023-01-26T19:47:52.736Z,12.23
2023-01-26T19:50:20.825Z,12.80
2023-01-26T19:52:50.051Z,13.30
2023-01-26T19:55:18.113Z,12.03
2023-01-26T19:57:45.908Z,11.93
2023-01-26T20:00:15.059Z,11.60
2023-01-26T20:02:43.225Z,12.17
2023-01-26T20:05:11.606Z,11.73
2023-01-26T20:07:39.642Z,13.30
2023-01-26T20:10:10.299Z,11.97
2023-01-26T20:12:38.116Z,12.53
2023-01-26T20:15:07.035Z,11.43
2023-01-26T20:17:35.290Z,11.80
2023-01-26T20:20:03.422Z,12.30
2023-01-26T20:22:34.088Z,12.53
2023-01-26T20:25:01.943Z,12.67
2023-01-26T20:27:32.330Z,12.13
2023-01-26T20:30:00.563Z,12.73
2023-01-26T20:32:28.810Z,12.33
2023-01-26T20:34:56.662Z,15.07
2023-01-26T20:37:24.528Z,13.40
2023-01-26T20:39:52.316Z,13.40
2023-01-26T20:42:20.854Z,13.67
2023-01-26T20:44:50.803Z,13.63
2023-01-26T20:47:18.662Z,13.50
2023-01-26T20:49:46.642Z,11.70
2023-01-26T20:52:14.473Z,14.90
2023-01-26T20:54:42.284Z,15.60
2023-01-26T20:57:10.111Z,18.27
2023-01-26T20:59:38.521Z,18.40
2023-01-26T21:02:07.855Z,15.43
2023-01-26T21:04:36.496Z,12.83
2023-01-26T21:07:04.413Z,14.07
2023-01-26T21:09:32.546Z,12.30
2023-01-26T21:12:00.419Z,13.20
2023-01-26T21:14:28.558Z,12.63
2023-01-26T21:16:56.391Z,12.43
2023-01-26T21:19:25.588Z,12.37
2023-01-26T21:21:53.462Z,12.77
2023-01-26T21:24:21.412Z,11.13
2023-01-26T21:26:49.259Z,13.20
2023-01-26T21:29:17.613Z,13.33
2023-01-26T21:31:48.701Z,14.30
2023-01-26T21:34:16.593Z,14.03
2023-01-26T21:36:46.499Z,12.17
2023-01-26T21:39:15.696Z,10.70
2023-01-26T21:41:59.258Z,11.67
2023-01-26T21:44:28.573Z,16.23
2023-01-26T21:46:57.770Z,12.53
2023-01-26T21:49:26.053Z,12.13
2023-01-26T21:52:21.291Z,13.53
2023-01-26T21:54:49.087Z,21.23
2023-01-26T21:57:34.803Z,15.60
2023-01-26T22:00:03.187Z,13.13
2023-01-26T22:02:32.510Z,13.77
2023-01-26T22:05:00.391Z,13.20
2023-01-26T22:07:32.078Z,12.20
2023-01-26T22:09:59.901Z,13.47
2023-01-26T22:12:27.753Z,12.63
2023-01-26T22:14:55.597Z,14.73
2023-01-26T22:17:23.546Z,15.83
2023-01-26T22:19:51.387Z,15.37
2023-01-26T22:22:19.223Z,13.60
2023-01-26T22:24:48.373Z,14.00
2023-01-26T22:27:16.182Z,14.33
2023-01-26T22:29:43.988Z,12.70
2023-01-26T22:32:11.905Z,18.20
2023-01-26T22:34:39.746Z,14.13
2023-01-26T22:37:07.553Z,16.63
2023-01-26T22:39:35.414Z,15.10
2023-01-26T22:42:04.777Z,21.53
2023-01-26T22:44:32.702Z,17.03
2023-01-26T22:47:01.363Z,15.60
2023-01-26T22:49:29.894Z,13.23
2023-01-26T22:51:57.729Z,15.07
2023-01-26T22:54:26.094Z,15.37
2023-01-26T22:56:54.113Z,18.07
2023-01-26T22:59:23.467Z,15.77
2023-01-26T23:01:51.267Z,14.30
2023-01-26T23:04:19.351Z,14.90
2023-01-26T23:06:47.225Z,19.23
2023-01-26T23:09:15.054Z,14.80
2023-01-26T23:11:42.894Z,13.70
2023-01-26T23:14:10.734Z,15.37
2023-01-26T23:16:39.948Z,14.43
2023-01-26T23:19:07.816Z,14.77
2023-01-26T23:21:35.662Z,13.80
2023-01-26T23:24:03.527Z,15.23
2023-01-26T23:26:31.449Z,18.30
2023-01-26T23:28:59.266Z,27.27
2023-01-26T23:31:27.531Z,21.23
2023-01-26T23:33:56.930Z,18.27
2023-01-26T23:36:24.852Z,13.93
2023-01-26T23:38:52.707Z,14.73
2023-01-26T23:41:20.589Z,13.23
2023-01-26T23:43:48.392Z,14.93
2023-01-26T23:46:16.413Z,14.43
2023-01-26T23:48:44.339Z,17.70
2023-01-26T23:51:13.634Z,14.50
2023-01-26T23:53:41.834Z,16.23
2023-01-26T23:56:11.831Z,14.97
2023-01-26T23:58:39.730Z,14.17
